createdAt,value
2019-01-20T00:00:01.571Z,88.69
2019-01-20T00:02:01.485Z,88.79
2019-01-20T00:03:01.495Z,88.79
2019-01-20T00:04:01.501Z,88.88
2019-01-20T00:05:01.716Z,88.98
2019-01-20T00:06:01.412Z,88.88
2019-01-20T00:07:01.428Z,88.88
2019-01-20T00:08:03.223Z,88.88
2019-01-20T00:09:03.255Z,88.79
2019-01-20T00:10:01.483Z,88.60
2019-01-20T00:11:02.167Z,88.79
2019-01-20T00:12:01.266Z,88.88
2019-01-20T00:13:01.244Z,88.88
2019-01-20T00:14:01.228Z,88.88
2019-01-20T00:15:02.668Z,88.79
2019-01-20T00:16:01.129Z,88.41
2019-01-20T00:17:02.689Z,88.41
2019-01-20T00:18:01.288Z,88.31
2019-01-20T00:19:02.062Z,88.41
2019-01-20T00:20:01.200Z,88.41
2019-01-20T00:21:01.139Z,88.22
2019-01-20T00:22:01.774Z,88.69
2019-01-20T00:23:01.191Z,88.50
2019-01-20T00:24:00.952Z,88.60
2019-01-20T00:25:00.923Z,88.69
2019-01-20T00:26:00.952Z,88.36
2019-01-20T00:27:01.006Z,88.69
2019-01-20T00:28:01.008Z,88.45
2019-01-20T00:29:00.975Z,88.41
2019-01-20T00:30:01.133Z,88.22
2019-01-20T00:31:00.881Z,88.12
2019-01-20T00:32:00.784Z,87.84
2019-01-20T00:33:00.744Z,88.12
2019-01-20T00:34:01.673Z,88.26
2019-01-20T00:35:00.728Z,87.84
2019-01-20T00:36:00.810Z,87.84
2019-01-20T00:37:00.857Z,87.93
2019-01-20T00:38:00.658Z,88.03
2019-01-20T00:40:00.703Z,88.03
2019-01-20T00:41:00.692Z,88.17
2019-01-20T00:42:02.420Z,88.17
2019-01-20T00:43:00.677Z,88.17
2019-01-20T00:44:00.545Z,88.07
2019-01-20T00:45:02.695Z,88.17
2019-01-20T00:46:02.261Z,87.88
2019-01-20T00:47:00.484Z,88.17
2019-01-20T00:48:00.720Z,87.98
2019-01-20T00:49:00.609Z,88.07
2019-01-20T00:50:02.375Z,87.98
2019-01-20T00:51:00.476Z,87.79
2019-01-20T00:52:00.430Z,88.17
2019-01-20T00:53:00.473Z,88.64
2019-01-20T00:54:00.378Z,88.45
2019-01-20T00:55:00.290Z,88.45
2019-01-20T00:56:00.316Z,88.55
2019-01-20T00:57:00.466Z,88.55
2019-01-20T00:58:00.276Z,87.79
2019-01-20T00:59:00.327Z,87.51
2019-01-20T01:00:00.395Z,87.41
2019-01-20T01:01:00.282Z,88.17
2019-01-20T01:02:00.311Z,87.60
2019-01-20T01:03:00.745Z,87.70
2019-01-20T01:04:00.212Z,87.51
2019-01-20T01:05:00.181Z,87.51
2019-01-20T01:06:00.192Z,87.32
2019-01-20T01:07:00.155Z,87.60
2019-01-20T01:08:00.121Z,87.51
2019-01-20T01:09:00.180Z,87.88
2019-01-20T01:10:00.087Z,87.98
2019-01-20T01:11:00.006Z,87.98
2019-01-20T01:11:59.915Z,87.88
2019-01-20T01:12:59.985Z,87.51
2019-01-20T01:13:59.920Z,87.70
2019-01-20T01:14:59.807Z,87.74
2019-01-20T01:16:00.006Z,87.55
2019-01-20T01:16:59.838Z,87.51
2019-01-20T01:17:59.770Z,87.79
2019-01-20T01:19:01.786Z,87.98
2019-01-20T01:20:00.020Z,87.13
2019-01-20T01:20:59.885Z,87.27
2019-01-20T01:21:59.826Z,87.41
2019-01-20T01:22:59.743Z,87.46
2019-01-20T01:24:00.142Z,87.08
2019-01-20T01:24:59.941Z,86.90
2019-01-20T01:25:59.625Z,87.55
2019-01-20T01:26:59.770Z,87.27
2019-01-20T01:27:59.682Z,87.08
2019-01-20T01:28:59.602Z,86.66
2019-01-20T01:30:00.008Z,86.71
2019-01-20T01:30:59.669Z,86.56
2019-01-20T01:31:59.629Z,86.90
2019-01-20T01:32:59.836Z,86.71
2019-01-20T01:33:59.536Z,86.80
2019-01-20T01:34:59.370Z,86.61
2019-01-20T01:35:59.345Z,86.52
2019-01-20T01:36:59.427Z,86.52
2019-01-20T01:37:59.664Z,86.61
2019-01-20T01:38:59.291Z,86.42
2019-01-20T01:39:59.682Z,86.23
2019-01-20T01:41:01.323Z,86.61
2019-01-20T01:41:59.321Z,86.42
2019-01-20T01:42:59.380Z,86.42
2019-01-20T01:44:00.129Z,87.08
2019-01-20T01:44:59.239Z,86.80
2019-01-20T01:45:59.217Z,86.71
2019-01-20T01:46:59.275Z,86.71
2019-01-20T01:47:59.214Z,86.71
2019-01-20T01:48:59.137Z,86.71
2019-01-20T01:49:59.138Z,86.71
2019-01-20T01:50:59.043Z,86.71
2019-01-20T01:51:59.139Z,86.80
2019-01-20T01:52:59.010Z,87.18
2019-01-20T01:53:59.015Z,86.99
2019-01-20T01:54:59.061Z,86.80
2019-01-20T01:55:58.938Z,86.80
2019-01-20T01:56:59.810Z,87.18
2019-01-20T01:57:59.119Z,86.99
2019-01-20T01:58:58.897Z,86.80
2019-01-20T01:59:58.865Z,86.80
2019-01-20T02:00:58.964Z,86.90
2019-01-20T02:01:58.928Z,86.80
2019-01-20T02:02:58.809Z,86.90
2019-01-20T02:03:59.694Z,86.61
2019-01-20T02:04:59.640Z,86.90
2019-01-20T02:05:58.811Z,86.80
2019-01-20T02:06:58.783Z,86.90
2019-01-20T02:07:58.828Z,86.42
2019-01-20T02:08:58.744Z,86.42
2019-01-20T02:09:59.269Z,86.71
2019-01-20T02:10:58.712Z,86.52
2019-01-20T02:11:58.702Z,86.94
2019-01-20T02:12:58.838Z,86.52
2019-01-20T02:13:59.371Z,86.61
2019-01-20T02:14:58.570Z,86.47
2019-01-20T02:15:58.734Z,86.61
2019-01-20T02:16:58.763Z,86.52
2019-01-20T02:17:58.524Z,86.71
2019-01-20T02:18:58.420Z,86.52
2019-01-20T02:19:58.590Z,86.66
2019-01-20T02:20:58.362Z,86.47
2019-01-20T02:21:58.426Z,86.23
2019-01-20T02:22:58.532Z,86.23
2019-01-20T02:23:58.384Z,86.04
2019-01-20T02:24:58.462Z,86.04
2019-01-20T02:26:00.421Z,85.95
2019-01-20T02:26:59.257Z,85.66
2019-01-20T02:27:58.726Z,85.95
2019-01-20T02:28:58.232Z,85.66
2019-01-20T02:30:01.267Z,85.66
2019-01-20T02:30:58.117Z,85.76
2019-01-20T02:31:58.222Z,85.85
2019-01-20T02:32:58.096Z,86.14
2019-01-20T02:33:58.268Z,86.04
2019-01-20T02:34:58.301Z,85.76
2019-01-20T02:35:58.020Z,85.95
2019-01-20T02:36:58.003Z,85.95
2019-01-20T02:37:58.145Z,85.95
2019-01-20T02:38:58.149Z,85.76
2019-01-20T02:39:58.105Z,85.76
2019-01-20T02:40:58.074Z,85.95
2019-01-20T02:41:57.986Z,85.57
2019-01-20T02:42:58.006Z,86.52
2019-01-20T02:43:59.695Z,86.14
2019-01-20T02:44:58.771Z,86.42
2019-01-20T02:45:58.016Z,86.33
2019-01-20T02:46:57.949Z,86.33
2019-01-20T02:47:57.914Z,86.23
2019-01-20T02:48:57.775Z,86.61
2019-01-20T02:49:57.728Z,86.71
2019-01-20T02:50:57.801Z,86.52
2019-01-20T02:51:59.723Z,86.42
2019-01-20T02:52:57.719Z,86.33
2019-01-20T02:53:57.775Z,86.52
2019-01-20T02:54:57.689Z,86.42
2019-01-20T02:55:57.866Z,86.42
2019-01-20T02:56:57.668Z,86.42
2019-01-20T02:57:57.615Z,86.71
2019-01-20T02:58:57.711Z,86.90
2019-01-20T02:59:58.280Z,86.23
2019-01-20T03:00:57.534Z,86.23
2019-01-20T03:01:57.499Z,86.23
2019-01-20T03:02:57.494Z,86.23
2019-01-20T03:03:58.133Z,86.23
2019-01-20T03:04:58.259Z,86.42
2019-01-20T03:05:57.487Z,86.33
2019-01-20T03:06:57.477Z,86.42
2019-01-20T03:07:57.434Z,86.33
2019-01-20T03:09:57.517Z,85.95
2019-01-20T03:10:57.216Z,86.42
2019-01-20T03:12:03.465Z,85.57
2019-01-20T03:12:57.296Z,85.76
2019-01-20T03:13:57.352Z,85.66
2019-01-20T03:14:57.323Z,85.76
2019-01-20T03:15:57.306Z,85.85
2019-01-20T03:16:57.272Z,85.28
2019-01-20T03:17:57.321Z,85.66
2019-01-20T03:18:57.097Z,85.57
2019-01-20T03:19:57.120Z,85.57
2019-01-20T03:20:57.125Z,85.57
2019-01-20T03:21:57.071Z,85.10
2019-01-20T03:22:57.689Z,85.19
2019-01-20T03:23:57.015Z,85.47
2019-01-20T03:24:57.036Z,85.10
2019-01-20T03:25:56.962Z,85.28
2019-01-20T03:27:56.970Z,85.38
2019-01-20T03:28:57.156Z,85.10
2019-01-20T03:29:57.001Z,85.47
2019-01-20T03:30:57.112Z,85.47
2019-01-20T03:31:56.868Z,85.19
2019-01-20T03:32:56.773Z,85.28
2019-01-20T03:33:57.012Z,85.28
2019-01-20T03:34:56.968Z,85.28
2019-01-20T03:35:56.893Z,85.47
2019-01-20T03:36:56.811Z,85.24
2019-01-20T03:37:56.789Z,85.00
2019-01-20T03:38:56.764Z,85.00
2019-01-20T03:39:56.621Z,85.00
2019-01-20T03:40:56.716Z,84.91
2019-01-20T03:41:56.610Z,85.19
2019-01-20T03:42:56.532Z,84.72
2019-01-20T03:43:56.567Z,84.91
2019-01-20T03:44:56.632Z,84.91
2019-01-20T03:45:57.231Z,84.53
2019-01-20T03:46:56.612Z,84.72
2019-01-20T03:47:56.434Z,84.34
2019-01-20T03:48:56.630Z,84.72
2019-01-20T03:50:56.602Z,84.53
2019-01-20T03:51:56.318Z,84.34
2019-01-20T03:52:56.345Z,84.63
2019-01-20T03:53:56.394Z,84.44
2019-01-20T03:54:56.479Z,84.63
2019-01-20T03:55:56.426Z,84.25
2019-01-20T03:56:56.350Z,84.25
2019-01-20T03:57:56.265Z,84.25
2019-01-20T03:58:56.265Z,84.44
2019-01-20T03:59:56.252Z,84.53
2019-01-20T04:00:56.138Z,84.44
2019-01-20T04:01:56.113Z,84.44
2019-01-20T04:02:56.286Z,84.06
2019-01-20T04:03:56.769Z,84.63
2019-01-20T04:04:56.396Z,84.63
2019-01-20T04:05:56.280Z,83.78
2019-01-20T04:06:56.732Z,84.72
2019-01-20T04:07:55.955Z,84.34
2019-01-20T04:08:55.976Z,84.63
2019-01-20T04:09:55.928Z,84.72
2019-01-20T04:10:56.023Z,84.06
2019-01-20T04:11:56.682Z,84.06
2019-01-20T04:12:55.860Z,83.78
2019-01-20T04:13:55.993Z,84.72
2019-01-20T04:14:55.923Z,84.16
2019-01-20T04:15:55.816Z,84.53
2019-01-20T04:16:55.924Z,84.06
2019-01-20T04:17:55.848Z,84.25
2019-01-20T04:18:55.773Z,83.97
2019-01-20T04:19:57.749Z,83.97
2019-01-20T04:20:55.822Z,84.16
2019-01-20T04:21:55.758Z,83.87
2019-01-20T04:22:55.742Z,83.97
2019-01-20T04:23:55.581Z,84.06
2019-01-20T04:24:55.673Z,83.87
2019-01-20T04:25:55.724Z,83.97
2019-01-20T04:26:55.667Z,84.06
2019-01-20T04:27:55.551Z,83.97
2019-01-20T04:28:55.608Z,83.68
2019-01-20T04:29:55.505Z,83.97
2019-01-20T04:30:55.537Z,83.87
2019-01-20T04:31:56.288Z,84.25
2019-01-20T04:32:55.438Z,84.06
2019-01-20T04:33:55.519Z,84.06
2019-01-20T04:34:55.534Z,84.06
2019-01-20T04:35:55.485Z,84.06
2019-01-20T04:36:55.360Z,83.68
2019-01-20T04:37:55.320Z,84.06
2019-01-20T04:38:56.193Z,83.59
2019-01-20T04:39:55.333Z,83.49
2019-01-20T04:40:55.388Z,83.59
2019-01-20T04:41:55.270Z,83.11
2019-01-20T04:42:55.210Z,83.87
2019-01-20T04:43:55.268Z,83.40
2019-01-20T04:44:55.323Z,83.59
2019-01-20T04:45:55.383Z,83.40
2019-01-20T04:46:55.137Z,83.40
2019-01-20T04:47:55.080Z,82.92
2019-01-20T04:48:55.043Z,83.02
2019-01-20T04:49:55.243Z,83.59
2019-01-20T04:50:55.140Z,83.40
2019-01-20T04:52:55.071Z,83.11
2019-01-20T04:53:54.962Z,83.11
2019-01-20T04:54:54.920Z,83.40
2019-01-20T04:55:54.887Z,82.73
2019-01-20T04:56:54.947Z,82.83
2019-01-20T04:57:54.798Z,82.92
2019-01-20T04:58:54.874Z,82.73
2019-01-20T04:59:54.859Z,82.64
2019-01-20T05:00:54.843Z,82.73
2019-01-20T05:01:54.841Z,82.45
2019-01-20T05:02:54.729Z,82.35
2019-01-20T05:03:54.824Z,82.35
2019-01-20T05:04:54.691Z,82.73
2019-01-20T05:05:54.704Z,82.45
2019-01-20T05:07:54.673Z,82.83
2019-01-20T05:08:55.349Z,82.54
2019-01-20T05:09:54.686Z,82.83
2019-01-20T05:10:54.888Z,82.64
2019-01-20T05:11:54.715Z,82.73
2019-01-20T05:12:54.689Z,82.69
2019-01-20T05:13:54.541Z,82.64
2019-01-20T05:14:54.546Z,82.60
2019-01-20T05:15:56.403Z,82.35
2019-01-20T05:16:54.599Z,82.64
2019-01-20T05:17:54.439Z,82.12
2019-01-20T05:18:54.392Z,82.22
2019-01-20T05:19:54.352Z,82.22
2019-01-20T05:20:55.222Z,82.31
2019-01-20T05:21:54.475Z,81.84
2019-01-20T05:22:54.305Z,82.03
2019-01-20T05:23:54.406Z,81.46
2019-01-20T05:24:54.315Z,81.27
2019-01-20T05:25:54.314Z,81.56
2019-01-20T05:26:54.288Z,81.84
2019-01-20T05:27:54.145Z,81.18
2019-01-20T05:28:54.156Z,81.46
2019-01-20T05:29:54.137Z,81.93
2019-01-20T05:30:54.702Z,81.37
2019-01-20T05:31:55.079Z,81.18
2019-01-20T05:32:54.155Z,81.27
2019-01-20T05:33:54.088Z,81.46
2019-01-20T05:34:54.061Z,81.37
2019-01-20T05:35:54.629Z,82.03
2019-01-20T05:36:53.991Z,81.74
2019-01-20T05:37:53.857Z,81.37
2019-01-20T05:38:54.064Z,81.09
2019-01-20T05:39:53.913Z,80.90
2019-01-20T05:40:53.844Z,81.46
2019-01-20T05:41:53.893Z,81.37
2019-01-20T05:42:53.930Z,81.46
2019-01-20T05:43:53.910Z,80.90
2019-01-20T05:44:53.688Z,81.09
2019-01-20T05:45:53.736Z,81.27
2019-01-20T05:46:53.727Z,80.71
2019-01-20T05:47:53.745Z,80.48
2019-01-20T05:48:53.675Z,81.04
2019-01-20T05:49:53.578Z,81.04
2019-01-20T05:50:54.281Z,81.14
2019-01-20T05:51:53.601Z,81.14
2019-01-20T05:52:53.596Z,80.85
2019-01-20T05:53:53.863Z,80.38
2019-01-20T05:54:53.591Z,81.14
2019-01-20T05:55:53.559Z,80.95
2019-01-20T05:56:53.794Z,81.04
2019-01-20T05:57:53.538Z,80.95
2019-01-20T05:58:53.397Z,80.66
2019-01-20T05:59:53.509Z,80.57
2019-01-20T06:00:54.206Z,80.48
2019-01-20T06:01:53.359Z,80.57
2019-01-20T06:02:53.378Z,80.66
2019-01-20T06:03:53.327Z,81.04
2019-01-20T06:04:53.511Z,80.76
2019-01-20T06:05:53.305Z,80.29
2019-01-20T06:06:53.217Z,80.38
2019-01-20T06:07:53.267Z,80.10
2019-01-20T06:08:53.150Z,80.19
2019-01-20T06:09:53.643Z,80.38
2019-01-20T06:10:53.215Z,80.66
2019-01-20T06:11:53.105Z,80.00
2019-01-20T06:12:54.131Z,79.63
2019-01-20T06:13:53.047Z,79.35
2019-01-20T06:14:53.045Z,80.00
2019-01-20T06:15:53.048Z,80.10
2019-01-20T06:16:53.020Z,80.10
2019-01-20T06:17:52.931Z,79.72
2019-01-20T06:18:53.017Z,79.82
2019-01-20T06:19:52.956Z,80.19
2019-01-20T06:20:53.004Z,80.15
2019-01-20T06:21:52.794Z,80.66
2019-01-20T06:22:52.942Z,80.15
2019-01-20T06:23:52.799Z,80.34
2019-01-20T06:24:53.054Z,80.44
2019-01-20T06:25:52.724Z,80.44
2019-01-20T06:26:52.798Z,80.63
2019-01-20T06:27:53.058Z,80.53
2019-01-20T06:28:52.777Z,80.34
2019-01-20T06:29:52.828Z,80.15
2019-01-20T06:30:52.635Z,80.34
2019-01-20T06:31:52.646Z,80.34
2019-01-20T06:32:52.536Z,80.34
2019-01-20T06:33:52.488Z,80.34
2019-01-20T06:34:53.112Z,80.34
2019-01-20T06:35:52.500Z,80.34
2019-01-20T06:36:52.535Z,79.68
2019-01-20T06:37:54.167Z,79.40
2019-01-20T06:38:52.393Z,79.40
2019-01-20T06:39:52.512Z,79.68
2019-01-20T06:40:52.430Z,79.68
2019-01-20T06:41:52.516Z,79.68
2019-01-20T06:42:52.378Z,79.40
2019-01-20T06:43:52.379Z,78.92
2019-01-20T06:44:52.257Z,79.02
2019-01-20T06:45:52.281Z,79.21
2019-01-20T06:46:52.245Z,79.30
2019-01-20T06:47:52.230Z,79.49
2019-01-20T06:48:52.222Z,79.78
2019-01-20T06:49:52.153Z,80.34
2019-01-20T06:50:52.606Z,80.72
2019-01-20T06:51:52.114Z,81.29
2019-01-20T06:52:52.637Z,80.91
2019-01-20T06:53:52.106Z,80.44
2019-01-20T06:54:52.004Z,81.20
2019-01-20T06:55:52.033Z,81.20
2019-01-20T06:56:51.949Z,80.82
2019-01-20T06:57:51.907Z,81.10
2019-01-20T06:58:51.961Z,80.15
2019-01-20T06:59:51.946Z,80.25
2019-01-20T07:00:51.868Z,79.78
2019-01-20T07:01:51.947Z,79.97
2019-01-20T07:02:51.810Z,79.87
2019-01-20T07:03:51.790Z,79.40
2019-01-20T07:04:51.856Z,79.30
2019-01-20T07:05:51.689Z,79.02
2019-01-20T07:06:51.845Z,79.02
2019-01-20T07:07:53.516Z,79.30
2019-01-20T07:08:51.713Z,78.92
2019-01-20T07:09:51.656Z,79.11
2019-01-20T07:10:51.676Z,79.11
2019-01-20T07:11:51.577Z,79.02
2019-01-20T07:12:51.576Z,79.02
2019-01-20T07:13:51.544Z,79.46
2019-01-20T07:14:51.553Z,79.64
2019-01-20T07:15:51.461Z,79.97
2019-01-20T07:16:52.136Z,79.68
2019-01-20T07:17:51.440Z,79.78
2019-01-20T07:18:51.374Z,80.06
2019-01-20T07:19:51.369Z,79.97
2019-01-20T07:20:51.354Z,79.87
2019-01-20T07:21:51.394Z,79.02
2019-01-20T07:22:51.278Z,79.97
2019-01-20T07:23:51.266Z,79.64
2019-01-20T07:24:51.286Z,79.11
2019-01-20T07:25:51.289Z,79.68
2019-01-20T07:26:51.239Z,80.02
2019-01-20T07:27:52.152Z,79.27
2019-01-20T07:28:51.166Z,78.98
2019-01-20T07:29:51.118Z,79.17
2019-01-20T07:30:51.662Z,78.60
2019-01-20T07:31:51.059Z,78.70
2019-01-20T07:32:51.063Z,78.79
2019-01-20T07:33:51.726Z,78.42
2019-01-20T07:34:51.047Z,78.42
2019-01-20T07:35:50.934Z,78.89
2019-01-20T07:36:50.912Z,78.32
2019-01-20T07:37:50.898Z,78.51
2019-01-20T07:38:50.894Z,78.13
2019-01-20T07:39:50.867Z,77.94
2019-01-20T07:40:50.837Z,77.94
2019-01-20T07:41:50.885Z,78.51
2019-01-20T07:42:50.796Z,78.13
2019-01-20T07:43:50.830Z,77.94
2019-01-20T07:44:50.732Z,77.85
2019-01-20T07:45:50.708Z,78.13
2019-01-20T07:46:50.647Z,77.09
2019-01-20T07:47:50.702Z,76.90
2019-01-20T07:48:51.631Z,77.47
2019-01-20T07:49:50.627Z,76.72
2019-01-20T07:50:50.650Z,76.76
2019-01-20T07:51:51.196Z,76.57
2019-01-20T07:52:50.665Z,76.09
2019-01-20T07:53:50.541Z,76.28
2019-01-20T07:54:50.488Z,76.00
2019-01-20T07:55:51.031Z,76.09
2019-01-20T07:56:50.561Z,75.66
2019-01-20T07:57:50.468Z,74.47
2019-01-20T07:58:50.563Z,72.90
2019-01-20T07:59:50.562Z,71.52
2019-01-20T08:00:50.353Z,69.85
2019-01-20T08:01:50.426Z,68.24
2019-01-20T08:02:50.482Z,67.24
2019-01-20T08:03:50.424Z,66.92
2019-01-20T08:04:50.394Z,66.35
2019-01-20T08:05:50.466Z,67.01
2019-01-20T08:06:50.380Z,66.86
2019-01-20T08:07:51.264Z,66.32
2019-01-20T08:08:50.293Z,65.12
2019-01-20T08:09:50.356Z,63.79
2019-01-20T08:10:50.405Z,62.59
2019-01-20T08:11:50.230Z,62.21
2019-01-20T08:12:50.296Z,62.02
2019-01-20T08:13:50.348Z,60.92
2019-01-20T08:14:50.863Z,60.19
2019-01-20T08:15:51.852Z,59.17
2019-01-20T08:16:50.855Z,58.13
2019-01-20T08:17:50.403Z,57.84
2019-01-20T08:18:50.350Z,57.56
2019-01-20T08:19:50.185Z,57.56
2019-01-20T08:20:50.227Z,57.28
2019-01-20T08:21:50.987Z,57.18
2019-01-20T08:22:50.188Z,57.11
2019-01-20T08:23:50.238Z,56.73
2019-01-20T08:24:51.775Z,55.65
2019-01-20T08:25:50.766Z,54.91
2019-01-20T08:26:50.211Z,53.99
2019-01-20T08:28:50.041Z,50.90
2019-01-20T08:29:50.788Z,49.66
2019-01-20T08:30:50.539Z,48.25
2019-01-20T08:31:52.907Z,48.37
2019-01-20T08:32:50.886Z,47.34
2019-01-20T08:33:50.004Z,47.06
2019-01-20T08:34:51.836Z,46.22
2019-01-20T08:35:50.035Z,45.67
2019-01-20T08:36:52.900Z,45.10
2019-01-20T08:37:49.911Z,43.98
2019-01-20T08:38:49.994Z,43.80
2019-01-20T08:39:51.838Z,42.08
2019-01-20T08:40:50.076Z,41.82
2019-01-20T08:41:51.822Z,41.15
2019-01-20T08:43:12.841Z,41.05
2019-01-20T08:43:51.844Z,39.43
2019-01-20T08:44:49.905Z,39.06
2019-01-20T08:45:50.974Z,38.49
2019-01-20T08:46:49.933Z,37.55
2019-01-20T08:47:49.960Z,36.79
2019-01-20T08:48:49.839Z,36.42
2019-01-20T08:49:50.001Z,36.32
2019-01-20T08:50:52.416Z,36.34
2019-01-20T08:51:49.875Z,35.88
2019-01-20T08:52:49.968Z,35.49
2019-01-20T08:53:54.482Z,34.84
2019-01-20T08:54:50.459Z,33.99
2019-01-20T08:55:49.793Z,33.70
2019-01-20T08:56:51.443Z,33.23
2019-01-20T08:57:49.781Z,33.15
2019-01-20T08:58:49.791Z,32.78
2019-01-20T08:59:49.963Z,32.30
2019-01-20T09:00:49.964Z,31.72
2019-01-20T09:01:49.765Z,31.06
2019-01-20T09:02:58.887Z,30.29
2019-01-20T09:04:58.839Z,30.02
2019-01-20T09:05:57.295Z,29.36
2019-01-20T09:06:55.395Z,28.97
2019-01-20T09:07:57.268Z,28.99
2019-01-20T09:08:55.249Z,27.93
2019-01-20T09:09:55.205Z,27.83
2019-01-20T09:11:18.255Z,27.66
2019-01-20T09:11:55.427Z,26.98
2019-01-20T09:12:55.220Z,25.73
2019-01-20T09:13:55.837Z,25.63
2019-01-20T09:14:55.687Z,25.62
2019-01-20T09:15:56.744Z,25.71
2019-01-20T09:16:56.850Z,25.90
2019-01-20T09:17:55.132Z,25.60
2019-01-20T09:18:55.236Z,25.49
2019-01-20T09:19:56.667Z,25.28
2019-01-20T09:21:55.192Z,26.67
2019-01-20T09:22:55.433Z,26.83
2019-01-20T09:23:56.046Z,27.59
2019-01-20T09:24:55.131Z,28.34
2019-01-20T09:25:55.291Z,28.53
2019-01-20T09:26:55.091Z,28.24
2019-01-20T09:27:56.727Z,28.70
2019-01-20T09:28:55.038Z,28.72
2019-01-20T09:29:55.202Z,28.72
2019-01-20T09:30:55.676Z,28.74
2019-01-20T09:31:55.162Z,28.66
2019-01-20T09:32:56.547Z,27.73
2019-01-20T09:33:55.145Z,26.51
2019-01-20T09:34:55.114Z,25.76
2019-01-20T09:35:55.100Z,25.02
2019-01-20T09:36:55.638Z,24.66
2019-01-20T09:37:54.971Z,23.99
2019-01-20T09:39:01.970Z,23.43
2019-01-20T09:39:56.687Z,23.54
2019-01-20T09:40:54.941Z,23.16
2019-01-20T09:41:55.114Z,22.97
2019-01-20T09:42:55.170Z,22.98
2019-01-20T09:44:01.806Z,22.12
2019-01-20T09:44:54.956Z,22.42
2019-01-20T09:45:55.822Z,22.61
2019-01-20T09:46:54.891Z,22.24
2019-01-20T09:48:15.898Z,21.85
2019-01-20T09:48:54.935Z,21.44
2019-01-20T09:49:54.863Z,22.06
2019-01-20T09:50:55.006Z,23.16
2019-01-20T09:51:54.953Z,24.20
2019-01-20T09:52:56.757Z,24.87
2019-01-20T09:53:54.913Z,24.96
2019-01-20T09:54:54.918Z,24.68
2019-01-20T09:55:54.999Z,24.86
2019-01-20T09:56:54.900Z,25.04
2019-01-20T09:57:54.844Z,25.52
2019-01-20T09:58:55.811Z,25.89
2019-01-20T09:59:54.843Z,25.70
2019-01-20T10:01:01.667Z,25.71
2019-01-20T10:01:55.811Z,25.45
2019-01-20T10:02:56.861Z,24.61
2019-01-20T10:03:54.964Z,24.22
2019-01-20T10:04:55.851Z,23.83
2019-01-20T10:05:57.513Z,24.09
2019-01-20T10:06:56.803Z,24.46
2019-01-20T10:08:55.642Z,25.96
2019-01-20T10:09:55.145Z,26.52
2019-01-20T10:10:57.325Z,26.81
2019-01-20T10:11:54.618Z,27.19
2019-01-20T10:12:55.163Z,26.53
2019-01-20T10:13:55.078Z,25.95
2019-01-20T10:14:56.119Z,26.97
2019-01-20T10:15:54.655Z,27.71
2019-01-20T10:16:56.292Z,28.69
2019-01-20T10:17:54.720Z,28.24
2019-01-20T10:18:54.642Z,27.52
2019-01-20T10:19:54.724Z,26.60
2019-01-20T10:20:55.346Z,25.67
2019-01-20T10:21:57.864Z,24.44
2019-01-20T10:23:56.271Z,22.84
2019-01-20T10:24:54.543Z,22.94
2019-01-20T10:26:09.238Z,22.09
2019-01-20T10:26:56.220Z,21.71
2019-01-20T10:27:54.829Z,20.76
2019-01-20T10:28:54.636Z,21.06
2019-01-20T10:29:56.451Z,20.87
2019-01-20T10:31:16.337Z,20.79
2019-01-20T10:31:54.610Z,20.59
2019-01-20T10:32:55.271Z,19.83
2019-01-20T10:33:54.535Z,20.03
2019-01-20T10:34:57.239Z,19.84
2019-01-20T10:36:09.421Z,19.56
2019-01-20T10:36:54.659Z,19.37
2019-01-20T10:37:59.363Z,19.47
2019-01-20T10:38:54.543Z,19.78
2019-01-20T10:40:09.196Z,19.29
2019-01-20T10:40:57.309Z,18.62
2019-01-20T10:41:55.348Z,18.23
2019-01-20T10:44:15.686Z,18.03
2019-01-20T10:44:54.428Z,17.74
2019-01-20T10:45:55.340Z,18.04
2019-01-20T10:46:55.161Z,18.04
2019-01-20T10:47:54.600Z,17.73
2019-01-20T10:48:59.395Z,17.71
2019-01-20T10:49:55.247Z,18.18
2019-01-20T10:50:54.479Z,18.84
2019-01-20T10:51:54.780Z,19.28
2019-01-20T10:53:54.375Z,21.52
2019-01-20T10:54:56.219Z,22.72
2019-01-20T10:55:55.365Z,23.93
2019-01-20T10:56:56.195Z,25.04
2019-01-20T10:57:57.167Z,26.35
2019-01-20T10:58:55.249Z,27.39
2019-01-20T10:59:54.539Z,28.61
2019-01-20T11:01:57.173Z,30.60
2019-01-20T11:02:54.532Z,30.93
2019-01-20T11:03:56.320Z,29.55
2019-01-20T11:04:57.273Z,27.50
2019-01-20T11:05:57.355Z,25.82
2019-01-20T11:06:56.358Z,24.40
2019-01-20T11:07:56.378Z,23.46
2019-01-20T11:08:59.397Z,23.08
2019-01-20T11:09:54.267Z,22.32
2019-01-20T11:10:56.721Z,22.05
2019-01-20T11:11:54.827Z,21.48
2019-01-20T11:12:54.312Z,21.21
2019-01-20T11:13:54.386Z,20.94
2019-01-20T11:14:54.661Z,20.47
2019-01-20T11:15:56.717Z,20.25
2019-01-20T11:16:55.877Z,20.36
2019-01-20T11:17:58.777Z,19.90
2019-01-20T11:18:54.081Z,19.70
2019-01-20T11:19:54.260Z,19.43
2019-01-20T11:20:54.143Z,19.43
2019-01-20T11:22:15.216Z,19.52
2019-01-20T11:23:08.812Z,19.43
2019-01-20T11:23:54.229Z,19.21
2019-01-20T11:24:56.845Z,19.79
2019-01-20T11:25:54.836Z,19.96
2019-01-20T11:27:00.832Z,20.79
2019-01-20T11:27:54.131Z,21.73
2019-01-20T11:28:54.280Z,22.46
2019-01-20T11:29:54.725Z,23.67
2019-01-20T11:30:54.264Z,24.79
2019-01-20T11:31:54.212Z,25.71
2019-01-20T11:32:54.100Z,26.93
2019-01-20T11:33:54.043Z,28.14
2019-01-20T11:34:54.076Z,28.99
2019-01-20T11:35:54.089Z,29.91
2019-01-20T11:36:55.837Z,31.04
2019-01-20T11:37:54.125Z,31.98
2019-01-20T11:38:55.881Z,32.91
2019-01-20T11:39:54.181Z,33.37
2019-01-20T11:40:53.848Z,34.59
2019-01-20T11:41:54.108Z,35.83
2019-01-20T11:43:53.902Z,37.61
2019-01-20T11:44:53.960Z,37.97
2019-01-20T11:45:53.984Z,38.26
2019-01-20T11:46:55.721Z,38.54
2019-01-20T11:47:53.941Z,39.42
2019-01-20T11:48:54.838Z,38.28
2019-01-20T11:49:53.862Z,38.87
2019-01-20T11:50:54.728Z,38.28
2019-01-20T11:51:53.884Z,36.52
2019-01-20T11:52:53.840Z,34.36
2019-01-20T11:55:17.869Z,30.62
2019-01-20T11:56:14.667Z,29.01
2019-01-20T11:57:14.673Z,28.22
2019-01-20T11:58:14.811Z,29.33
2019-01-20T11:59:14.554Z,30.07
2019-01-20T12:00:15.310Z,31.18
2019-01-20T12:01:14.745Z,32.21
2019-01-20T12:02:22.352Z,32.95
2019-01-20T12:03:14.962Z,33.59
2019-01-20T12:04:14.677Z,34.91
2019-01-20T12:05:14.617Z,36.13
2019-01-20T12:06:14.587Z,36.58
2019-01-20T12:07:14.599Z,37.23
2019-01-20T12:08:15.394Z,38.39
2019-01-20T12:09:21.146Z,37.49
2019-01-20T12:10:14.591Z,36.28
2019-01-20T12:11:14.639Z,35.15
2019-01-20T12:12:15.158Z,34.31
2019-01-20T12:13:14.484Z,33.49
2019-01-20T12:14:15.274Z,32.29
2019-01-20T12:15:14.547Z,31.55
2019-01-20T12:16:14.401Z,30.15
2019-01-20T12:17:16.154Z,29.57
2019-01-20T12:18:16.215Z,28.83
2019-01-20T12:20:14.514Z,27.52
2019-01-20T12:21:14.421Z,26.95
2019-01-20T12:22:17.304Z,26.78
2019-01-20T12:23:14.304Z,26.12
2019-01-20T12:24:15.287Z,26.03
2019-01-20T12:25:14.509Z,25.94
2019-01-20T12:26:15.371Z,25.46
2019-01-20T12:27:14.418Z,25.35
2019-01-20T12:28:15.838Z,25.61
2019-01-20T12:29:14.313Z,26.81
2019-01-20T12:30:15.298Z,27.64
2019-01-20T12:31:14.246Z,28.75
2019-01-20T12:32:14.210Z,29.77
2019-01-20T12:33:14.802Z,30.98
2019-01-20T12:34:14.240Z,32.01
2019-01-20T12:35:14.215Z,33.14
2019-01-20T12:36:14.177Z,33.29
2019-01-20T12:37:14.164Z,34.32
2019-01-20T12:38:14.238Z,34.78
2019-01-20T12:39:14.347Z,35.81
2019-01-20T12:40:14.862Z,36.38
2019-01-20T12:41:14.248Z,36.74
2019-01-20T12:42:14.283Z,37.38
2019-01-20T12:43:14.786Z,38.14
2019-01-20T12:44:13.942Z,39.17
2019-01-20T12:45:14.065Z,39.73
2019-01-20T12:46:14.076Z,40.47
2019-01-20T12:47:14.988Z,41.05
2019-01-20T12:48:14.886Z,41.52
2019-01-20T12:49:14.148Z,42.16
2019-01-20T12:50:14.198Z,42.92
2019-01-20T12:51:13.988Z,43.77
2019-01-20T12:52:13.895Z,44.43
2019-01-20T12:53:13.855Z,44.62
2019-01-20T12:54:13.896Z,45.19
2019-01-20T12:55:14.779Z,45.03
2019-01-20T12:56:13.952Z,44.76
2019-01-20T12:57:13.794Z,44.31
2019-01-20T12:58:13.949Z,43.67
2019-01-20T12:59:13.904Z,42.36
2019-01-20T13:00:15.871Z,41.53
2019-01-20T13:01:14.342Z,40.62
2019-01-20T13:02:14.509Z,39.59
2019-01-20T13:03:13.942Z,38.28
2019-01-20T13:04:14.018Z,37.61
2019-01-20T13:05:16.372Z,37.21
2019-01-20T13:06:14.400Z,37.38
2019-01-20T13:07:15.207Z,37.35
2019-01-20T13:08:13.734Z,38.65
2019-01-20T13:09:13.826Z,39.97
2019-01-20T13:10:14.298Z,40.33